North Hampton, New Hampshire
Current Conditions -  °F | °C
As of 4:58 AM on Friday 19 Dec 2014 (Local Time) from KPSM Reporting Station
Few Clouds Few Clouds  
Wind Chill: 23°   Ceiling: Unl
Heat Index: 29°   Visibility: 10mi
Dew Point: 22°   Wind: 6mph
Humidity: 74%   Direction: 280°W
Pressure: 29.84"   Gusts: NA
Location:  42.97°N, 70.83°W
Report Text: KPSM 190958Z 28005KT 10SM FEW035 FEW055 M01/M05 A2984 RMK AO2A SLP109 T10141055
Loading
Personal Weather Stations






























Interactive Weather Map New forecast layout! Learn more

10-Day Weather Forecast

Advertisements
Track Severe Weather on mobile